Terminal Aerodrome Forecast
Issued by NWS Sterling, VA

Current Version | Previous Version | Text Only | Print | Product List | Glossary Off
Versions: 1 2 3 4 5 6 7 8 9 10 11 12 13 14 15 16 17 18 19 20 21 22 23 24

292
FTUS41 KLWX 100832 AAA
TAFIAD
TAF AMD
KIAD 100832Z 1009/1112 24006KT P6SM SCT070
     FM101200 27010G17KT P6SM SCT250
     FM101600 28013G24KT P6SM FEW250
     FM102200 26008KT P6SM SCT080=

USA.gov is the U.S. government's official web portal to all federal, state and local government web resources and services.